sensor_id;sensor_type;location;lat;lon;timestamp;P1;durP1;ratioP1;P2;durP2;ratioP2
11269;SDS011;5692;48.956;9.200;2023-12-14T01:59:52;323.05;;;307.65;;
11269;SDS011;5692;48.956;9.200;2023-12-14T02:02:18;308.65;;;293.90;;
11269;SDS011;5692;48.956;9.200;2023-12-14T02:04:44;319.67;;;304.38;;
11269;SDS011;5692;48.956;9.200;2023-12-14T02:07:10;312.55;;;297.65;;
11269;SDS011;5692;48.956;9.200;2023-12-14T02:09:36;302.85;;;288.38;;
11269;SDS011;5692;48.956;9.200;2023-12-14T02:12:03;312.58;;;297.65;;
11269;SDS011;5692;48.956;9.200;2023-12-14T02:14:29;313.27;;;298.30;;
11269;SDS011;5692;48.956;9.200;2023-12-14T02:16:55;299.73;;;285.40;;
11269;SDS011;5692;48.956;9.200;2023-12-14T02:19:21;302.45;;;288.00;;
11269;SDS011;5692;48.956;9.200;2023-12-14T02:21:47;281.42;;;267.98;;
11269;SDS011;5692;48.956;9.200;2023-12-14T02:24:13;295.38;;;281.27;;
11269;SDS011;5692;48.956;9.200;2023-12-14T02:26:39;297.20;;;283.00;;
11269;SDS011;5692;48.956;9.200;2023-12-14T02:29:05;311.75;;;296.85;;
11269;SDS011;5692;48.956;9.200;2023-12-14T02:31:31;304.38;;;289.85;;
11269;SDS011;5692;48.956;9.200;2023-12-14T02:33:57;294.05;;;280.00;;
11269;SDS011;5692;48.956;9.200;2023-12-14T02:36:23;310.05;;;295.25;;
11269;SDS011;5692;48.956;9.200;2023-12-14T02:38:49;288.35;;;274.55;;
11269;SDS011;5692;48.956;9.200;2023-12-14T02:41:15;289.17;;;275.38;;
11269;SDS011;5692;48.956;9.200;2023-12-14T02:43:41;303.75;;;289.20;;
11269;SDS011;5692;48.956;9.200;2023-12-14T02:46:07;296.25;;;282.08;;
11269;SDS011;5692;48.956;9.200;2023-12-14T02:48:34;302.83;;;288.35;;
11269;SDS011;5692;48.956;9.200;2023-12-14T02:51:00;307.50;;;292.80;;
11269;SDS011;5692;48.956;9.200;2023-12-14T02:53:26;301.63;;;287.23;;
11269;SDS011;5692;48.956;9.200;2023-12-14T02:55:52;319.02;;;303.80;;
11269;SDS011;5692;48.956;9.200;2023-12-14T02:58:18;334.00;;;318.05;;
11269;SDS011;5692;48.956;9.200;2023-12-14T03:00:44;321.75;;;306.38;;
11269;SDS011;5692;48.956;9.200;2023-12-14T03:03:10;308.30;;;293.58;;
11269;SDS011;5692;48.956;9.200;2023-12-14T03:05:36;305.70;;;291.08;;
11269;SDS011;5692;48.956;9.200;2023-12-14T03:08:02;305.02;;;290.45;;
11269;SDS011;5692;48.956;9.200;2023-12-14T03:10:28;293.38;;;279.35;;
11269;SDS011;5692;48.956;9.200;2023-12-14T03:12:54;318.70;;;303.48;;
11269;SDS011;5692;48.956;9.200;2023-12-14T03:15:20;300.20;;;285.85;;
11269;SDS011;5692;48.956;9.200;2023-12-14T03:17:47;303.50;;;289.00;;
11269;SDS011;5692;48.956;9.200;2023-12-14T03:20:13;293.50;;;279.48;;
11269;SDS011;5692;48.956;9.200;2023-12-14T03:22:39;304.85;;;290.27;;
11269;SDS011;5692;48.956;9.200;2023-12-14T03:25:06;295.10;;;281.00;;
11269;SDS011;5692;48.956;9.200;2023-12-14T03:27:32;305.77;;;291.17;;
11269;SDS011;5692;48.956;9.200;2023-12-14T03:29:58;289.92;;;276.08;;
11269;SDS011;5692;48.956;9.200;2023-12-14T03:32:24;308.80;;;294.05;;
11269;SDS011;5692;48.956;9.200;2023-12-14T03:34:50;316.53;;;301.43;;
11269;SDS011;5692;48.956;9.200;2023-12-14T03:37:16;336.92;;;320.83;;
11269;SDS011;5692;48.956;9.200;2023-12-14T03:39:42;313.52;;;298.55;;
11269;SDS011;5692;48.956;9.200;2023-12-14T03:42:08;323.00;;;307.58;;
11269;SDS011;5692;48.956;9.200;2023-12-14T03:44:34;295.23;;;281.13;;
11269;SDS011;5692;48.956;9.200;2023-12-14T03:47:00;313.08;;;298.13;;
11269;SDS011;5692;48.956;9.200;2023-12-14T03:49:26;308.45;;;293.70;;
11269;SDS011;5692;48.956;9.200;2023-12-14T03:51:52;312.58;;;297.65;;
11269;SDS011;5692;48.956;9.200;2023-12-14T03:54:18;315.02;;;299.98;;
11269;SDS011;5692;48.956;9.200;2023-12-14T03:56:44;309.65;;;294.85;;
11269;SDS011;5692;48.956;9.200;2023-12-14T03:59:10;308.55;;;293.80;;
11269;SDS011;5692;48.956;9.200;2023-12-14T04:01:36;292.42;;;278.42;;
11269;SDS011;5692;48.956;9.200;2023-12-14T04:04:04;331.23;;;315.40;;
11269;SDS011;5692;48.956;9.200;2023-12-14T04:06:30;316.88;;;301.73;;
11269;SDS011;5692;48.956;9.200;2023-12-14T04:08:56;319.25;;;304.00;;
11269;SDS011;5692;48.956;9.200;2023-12-14T04:11:22;334.55;;;318.55;;
11269;SDS011;5692;48.956;9.200;2023-12-14T04:13:49;323.80;;;308.33;;
11269;SDS011;5692;48.956;9.200;2023-12-14T04:16:22;332.50;;;316.60;;
11269;SDS011;5692;48.956;9.200;2023-12-14T04:18:48;332.67;;;316.80;;
11269;SDS011;5692;48.956;9.200;2023-12-14T04:21:14;310.10;;;295.27;;
11269;SDS011;5692;48.956;9.200;2023-12-14T04:23:40;314.08;;;299.08;;
11269;SDS011;5692;48.956;9.200;2023-12-14T04:26:06;306.80;;;292.15;;
11269;SDS011;5692;48.956;9.200;2023-12-14T04:28:34;313.60;;;298.63;;
11269;SDS011;5692;48.956;9.200;2023-12-14T04:31:00;338.30;;;322.15;;
11269;SDS011;5692;48.956;9.200;2023-12-14T04:33:27;345.95;;;329.45;;
11269;SDS011;5692;48.956;9.200;2023-12-14T04:35:53;346.48;;;329.90;;
11269;SDS011;5692;48.956;9.200;2023-12-14T04:38:19;330.13;;;314.38;;
11269;SDS011;5692;48.956;9.200;2023-12-14T04:40:45;324.27;;;308.77;;
11269;SDS011;5692;48.956;9.200;2023-12-14T04:43:11;315.83;;;300.73;;
11269;SDS011;5692;48.956;9.200;2023-12-14T04:45:37;322.48;;;307.08;;
11269;SDS011;5692;48.956;9.200;2023-12-14T04:48:03;314.98;;;299.92;;
11269;SDS011;5692;48.956;9.200;2023-12-14T04:50:29;309.63;;;294.83;;
11269;SDS011;5692;48.956;9.200;2023-12-14T04:52:55;319.20;;;303.95;;
11269;SDS011;5692;48.956;9.200;2023-12-14T04:55:21;295.02;;;280.92;;
11269;SDS011;5692;48.956;9.200;2023-12-14T04:57:47;317.77;;;302.60;;
11269;SDS011;5692;48.956;9.200;2023-12-14T05:00:14;317.40;;;302.25;;
11269;SDS011;5692;48.956;9.200;2023-12-14T05:02:40;317.05;;;301.90;;
11269;SDS011;5692;48.956;9.200;2023-12-14T05:05:06;334.70;;;318.70;;
11269;SDS011;5692;48.956;9.200;2023-12-14T05:07:32;323.30;;;307.88;;
11269;SDS011;5692;48.956;9.200;2023-12-14T05:09:58;316.10;;;301.00;;
11269;SDS011;5692;48.956;9.200;2023-12-14T05:12:24;329.77;;;314.02;;
11269;SDS011;5692;48.956;9.200;2023-12-14T05:14:52;311.67;;;296.77;;
11269;SDS011;5692;48.956;9.200;2023-12-14T05:17:18;311.92;;;297.02;;
11269;SDS011;5692;48.956;9.200;2023-12-14T05:19:44;301.88;;;287.45;;
11269;SDS011;5692;48.956;9.200;2023-12-14T05:22:11;308.00;;;293.30;;
11269;SDS011;5692;48.956;9.200;2023-12-14T05:24:37;315.67;;;300.60;;
11269;SDS011;5692;48.956;9.200;2023-12-14T05:27:03;329.65;;;313.90;;
11269;SDS011;5692;48.956;9.200;2023-12-14T05:29:29;290.98;;;277.08;;
11269;SDS011;5692;48.956;9.200;2023-12-14T05:31:58;324.02;;;308.52;;
11269;SDS011;5692;48.956;9.200;2023-12-14T05:34:24;327.83;;;312.17;;
11269;SDS011;5692;48.956;9.200;2023-12-14T05:36:50;335.50;;;319.45;;
11269;SDS011;5692;48.956;9.200;2023-12-14T05:39:16;326.58;;;310.98;;
11269;SDS011;5692;48.956;9.200;2023-12-14T05:41:42;321.35;;;306.00;;
11269;SDS011;5692;48.956;9.200;2023-12-14T05:44:08;320.45;;;305.13;;
11269;SDS011;5692;48.956;9.200;2023-12-14T05:46:34;329.42;;;313.70;;
11269;SDS011;5692;48.956;9.200;2023-12-14T05:49:01;329.38;;;313.65;;
11269;SDS011;5692;48.956;9.200;2023-12-14T05:51:27;324.95;;;309.45;;
11269;SDS011;5692;48.956;9.200;2023-12-14T05:53:53;324.05;;;308.55;;
11269;SDS011;5692;48.956;9.200;2023-12-14T05:56:19;314.80;;;299.77;;
11269;SDS011;5692;48.956;9.200;2023-12-14T05:58:45;317.55;;;302.40;;
11269;SDS011;5692;48.956;9.200;2023-12-14T06:01:11;318.75;;;303.52;;
11269;SDS011;5692;48.956;9.200;2023-12-14T06:03:38;307.88;;;293.15;;
11269;SDS011;5692;48.956;9.200;2023-12-14T06:06:04;310.45;;;295.60;;
11269;SDS011;5692;48.956;9.200;2023-12-14T06:08:30;323.33;;;307.88;;
11269;SDS011;5692;48.956;9.200;2023-12-14T06:10:56;288.05;;;274.27;;
11269;SDS011;5692;48.956;9.200;2023-12-14T06:13:22;299.05;;;284.75;;
11269;SDS011;5692;48.956;9.200;2023-12-14T08:30:46;341.17;;;324.88;;
11269;SDS011;5692;48.956;9.200;2023-12-14T08:33:28;368.48;;;350.88;;
11269;SDS011;5692;48.956;9.200;2023-12-14T11:13:23;349.77;;;333.08;;
11269;SDS011;5692;48.956;9.200;2023-12-14T11:25:35;336.30;;;320.23;;
11269;SDS011;5692;48.956;9.200;2023-12-14T11:28:05;343.35;;;326.92;;
11269;SDS011;5692;48.956;9.200;2023-12-14T11:30:43;345.30;;;328.80;;
11269;SDS011;5692;48.956;9.200;2023-12-14T11:33:16;356.15;;;339.13;;
11269;SDS011;5692;48.956;9.200;2023-12-14T11:36:11;345.48;;;328.98;;
11269;SDS011;5692;48.956;9.200;2023-12-14T11:38:39;343.25;;;326.85;;
11269;SDS011;5692;48.956;9.200;2023-12-14T11:41:26;355.15;;;338.20;;
11269;SDS011;5692;48.956;9.200;2023-12-14T11:50:20;336.88;;;320.77;;
11269;SDS011;5692;48.956;9.200;2023-12-14T11:55:40;349.38;;;332.67;;
11269;SDS011;5692;48.956;9.200;2023-12-14T11:58:12;350.45;;;333.73;;
11269;SDS011;5692;48.956;9.200;2023-12-14T12:00:41;341.58;;;325.27;;
11269;SDS011;5692;48.956;9.200;2023-12-14T12:03:25;338.45;;;322.27;;
11269;SDS011;5692;48.956;9.200;2023-12-14T12:05:58;326.30;;;310.70;;
11269;SDS011;5692;48.956;9.200;2023-12-14T12:08:25;334.30;;;318.30;;
11269;SDS011;5692;48.956;9.200;2023-12-14T12:10:54;312.85;;;297.90;;
11269;SDS011;5692;48.956;9.200;2023-12-14T12:13:22;337.00;;;320.90;;
11269;SDS011;5692;48.956;9.200;2023-12-14T12:15:56;334.10;;;318.15;;
11269;SDS011;5692;48.956;9.200;2023-12-14T12:18:44;322.42;;;307.02;;
11269;SDS011;5692;48.956;9.200;2023-12-14T12:21:19;353.67;;;336.77;;
11269;SDS011;5692;48.956;9.200;2023-12-14T12:24:05;342.30;;;325.95;;
11269;SDS011;5692;48.956;9.200;2023-12-14T12:29:46;298.42;;;284.15;;
11269;SDS011;5692;48.956;9.200;2023-12-14T12:32:32;322.55;;;307.15;;
11269;SDS011;5692;48.956;9.200;2023-12-14T12:35:00;326.10;;;310.50;;
11269;SDS011;5692;48.956;9.200;2023-12-14T12:37:29;307.17;;;292.50;;
11269;SDS011;5692;48.956;9.200;2023-12-14T12:39:58;324.33;;;308.83;;
11269;SDS011;5692;48.956;9.200;2023-12-14T12:42:24;340.88;;;324.58;;
11269;SDS011;5692;48.956;9.200;2023-12-14T12:45:00;322.38;;;306.98;;
11269;SDS011;5692;48.956;9.200;2023-12-14T12:47:27;322.63;;;307.23;;
11269;SDS011;5692;48.956;9.200;2023-12-14T12:50:27;315.52;;;300.42;;
11269;SDS011;5692;48.956;9.200;2023-12-14T12:52:59;326.20;;;310.60;;
11269;SDS011;5692;48.956;9.200;2023-12-14T12:55:46;315.38;;;300.30;;
11269;SDS011;5692;48.956;9.200;2023-12-14T12:58:21;309.25;;;294.48;;
11269;SDS011;5692;48.956;9.200;2023-12-14T13:00:57;311.35;;;296.48;;
11269;SDS011;5692;48.956;9.200;2023-12-14T13:03:29;287.77;;;274.02;;
11269;SDS011;5692;48.956;9.200;2023-12-14T13:06:03;313.20;;;298.25;;
11269;SDS011;5692;48.956;9.200;2023-12-14T13:08:31;285.35;;;271.75;;
11269;SDS011;5692;48.956;9.200;2023-12-14T13:10:59;300.27;;;285.92;;
11269;SDS011;5692;48.956;9.200;2023-12-14T13:13:43;329.23;;;313.48;;
11269;SDS011;5692;48.956;9.200;2023-12-14T13:16:12;316.75;;;301.63;;
11269;SDS011;5692;48.956;9.200;2023-12-14T13:18:39;310.45;;;295.63;;
11269;SDS011;5692;48.956;9.200;2023-12-14T13:21:08;314.45;;;299.42;;
11269;SDS011;5692;48.956;9.200;2023-12-14T13:23:40;293.48;;;279.45;;
11269;SDS011;5692;48.956;9.200;2023-12-14T13:26:06;308.63;;;293.88;;
11269;SDS011;5692;48.956;9.200;2023-12-14T13:29:05;303.23;;;288.73;;
11269;SDS011;5692;48.956;9.200;2023-12-14T13:31:34;318.45;;;303.25;;
11269;SDS011;5692;48.956;9.200;2023-12-14T13:34:17;312.33;;;297.42;;
11269;SDS011;5692;48.956;9.200;2023-12-14T13:36:45;322.98;;;307.55;;
11269;SDS011;5692;48.956;9.200;2023-12-14T13:39:15;334.13;;;318.15;;
11269;SDS011;5692;48.956;9.200;2023-12-14T13:41:41;335.17;;;319.17;;
11269;SDS011;5692;48.956;9.200;2023-12-14T13:44:07;343.85;;;327.42;;
11269;SDS011;5692;48.956;9.200;2023-12-14T13:46:36;308.75;;;294.00;;
11269;SDS011;5692;48.956;9.200;2023-12-14T13:49:02;311.13;;;296.23;;
11269;SDS011;5692;48.956;9.200;2023-12-14T13:51:28;326.60;;;311.00;;
11269;SDS011;5692;48.956;9.200;2023-12-14T13:53:54;321.42;;;306.08;;
11269;SDS011;5692;48.956;9.200;2023-12-14T13:56:22;308.25;;;293.52;;
11269;SDS011;5692;48.956;9.200;2023-12-14T13:58:48;322.25;;;306.85;;
11269;SDS011;5692;48.956;9.200;2023-12-14T14:01:25;322.17;;;306.77;;
11269;SDS011;5692;48.956;9.200;2023-12-14T14:03:52;307.02;;;292.35;;
11269;SDS011;5692;48.956;9.200;2023-12-14T14:06:18;306.50;;;291.85;;
11269;SDS011;5692;48.956;9.200;2023-12-14T14:08:45;304.88;;;290.30;;
11269;SDS011;5692;48.956;9.200;2023-12-14T14:11:14;309.10;;;294.30;;
11269;SDS011;5692;48.956;9.200;2023-12-14T14:13:40;315.13;;;300.05;;
11269;SDS011;5692;48.956;9.200;2023-12-14T14:16:29;281.77;;;268.30;;
11269;SDS011;5692;48.956;9.200;2023-12-14T14:19:05;285.13;;;271.52;;
11269;SDS011;5692;48.956;9.200;2023-12-14T14:21:32;302.10;;;287.65;;
11269;SDS011;5692;48.956;9.200;2023-12-14T14:23:58;311.20;;;296.35;;
11269;SDS011;5692;48.956;9.200;2023-12-14T14:26:24;318.80;;;303.58;;
11269;SDS011;5692;48.956;9.200;2023-12-14T14:28:50;311.48;;;296.58;;
11269;SDS011;5692;48.956;9.200;2023-12-14T14:31:24;300.85;;;286.45;;
11269;SDS011;5692;48.956;9.200;2023-12-14T14:33:55;305.00;;;290.42;;
11269;SDS011;5692;48.956;9.200;2023-12-14T14:36:21;307.30;;;292.63;;
11269;SDS011;5692;48.956;9.200;2023-12-14T14:38:50;325.52;;;309.98;;
11269;SDS011;5692;48.956;9.200;2023-12-14T14:41:19;315.35;;;300.27;;
11269;SDS011;5692;48.956;9.200;2023-12-14T14:43:45;307.20;;;292.50;;
11269;SDS011;5692;48.956;9.200;2023-12-14T14:46:13;299.30;;;285.00;;
11269;SDS011;5692;48.956;9.200;2023-12-14T14:48:39;291.30;;;277.40;;
11269;SDS011;5692;48.956;9.200;2023-12-14T14:51:08;309.45;;;294.65;;
11269;SDS011;5692;48.956;9.200;2023-12-14T14:53:34;286.05;;;272.38;;
11269;SDS011;5692;48.956;9.200;2023-12-14T14:56:02;302.25;;;287.80;;
11269;SDS011;5692;48.956;9.200;2023-12-14T14:58:30;289.35;;;275.52;;
11269;SDS011;5692;48.956;9.200;2023-12-14T15:00:56;294.50;;;280.42;;
11269;SDS011;5692;48.956;9.200;2023-12-14T15:03:23;281.83;;;268.35;;
11269;SDS011;5692;48.956;9.200;2023-12-14T15:05:49;277.60;;;264.30;;
11269;SDS011;5692;48.956;9.200;2023-12-14T15:08:35;284.77;;;271.15;;
11269;SDS011;5692;48.956;9.200;2023-12-14T15:11:27;290.52;;;276.63;;
11269;SDS011;5692;48.956;9.200;2023-12-14T15:13:57;288.58;;;274.77;;
11269;SDS011;5692;48.956;9.200;2023-12-14T15:16:36;303.88;;;289.33;;
11269;SDS011;5692;48.956;9.200;2023-12-14T15:19:03;286.65;;;272.95;;
11269;SDS011;5692;48.956;9.200;2023-12-14T15:21:32;307.85;;;293.13;;
11269;SDS011;5692;48.956;9.200;2023-12-14T15:23:58;288.58;;;274.77;;
11269;SDS011;5692;48.956;9.200;2023-12-14T15:26:24;284.95;;;271.35;;
11269;SDS011;5692;48.956;9.200;2023-12-14T15:28:57;308.90;;;294.13;;
11269;SDS011;5692;48.956;9.200;2023-12-14T15:31:28;291.80;;;277.90;;
11269;SDS011;5692;48.956;9.200;2023-12-14T15:33:58;306.58;;;291.92;;
11269;SDS011;5692;48.956;9.200;2023-12-14T15:36:39;292.30;;;278.33;;
11269;SDS011;5692;48.956;9.200;2023-12-14T15:39:25;274.83;;;261.67;;
11269;SDS011;5692;48.956;9.200;2023-12-14T15:41:51;284.70;;;271.10;;
11269;SDS011;5692;48.956;9.200;2023-12-14T15:44:19;276.98;;;263.75;;
11269;SDS011;5692;48.956;9.200;2023-12-14T15:46:46;308.92;;;294.17;;
11269;SDS011;5692;48.956;9.200;2023-12-14T15:49:12;302.10;;;287.65;;
11269;SDS011;5692;48.956;9.200;2023-12-14T15:51:39;272.77;;;259.73;;
11269;SDS011;5692;48.956;9.200;2023-12-14T15:54:05;277.52;;;264.25;;
11269;SDS011;5692;48.956;9.200;2023-12-14T15:56:31;300.10;;;285.77;;
11269;SDS011;5692;48.956;9.200;2023-12-14T15:59:00;312.88;;;297.92;;
11269;SDS011;5692;48.956;9.200;2023-12-14T16:01:26;291.90;;;277.95;;
11269;SDS011;5692;48.956;9.200;2023-12-14T16:13:20;285.20;;;271.60;;
11269;SDS011;5692;48.956;9.200;2023-12-14T16:15:56;286.05;;;272.35;;
11269;SDS011;5692;48.956;9.200;2023-12-14T16:18:23;290.92;;;277.02;;
11269;SDS011;5692;48.956;9.200;2023-12-14T16:20:49;276.08;;;262.88;;
11269;SDS011;5692;48.956;9.200;2023-12-14T16:23:18;289.55;;;275.75;;
11269;SDS011;5692;48.956;9.200;2023-12-14T16:25:44;290.35;;;276.50;;
11269;SDS011;5692;48.956;9.200;2023-12-14T16:28:17;285.67;;;272.00;;
11269;SDS011;5692;48.956;9.200;2023-12-14T16:30:47;298.42;;;284.13;;
11269;SDS011;5692;48.956;9.200;2023-12-14T16:33:24;307.48;;;292.77;;
11269;SDS011;5692;48.956;9.200;2023-12-14T16:35:55;287.92;;;274.17;;
11269;SDS011;5692;48.956;9.200;2023-12-14T16:38:23;289.92;;;276.08;;
11269;SDS011;5692;48.956;9.200;2023-12-14T16:40:55;288.92;;;275.13;;
11269;SDS011;5692;48.956;9.200;2023-12-14T16:43:21;299.08;;;284.77;;
11269;SDS011;5692;48.956;9.200;2023-12-14T16:45:50;293.85;;;279.83;;
11269;SDS011;5692;48.956;9.200;2023-12-14T16:48:18;312.05;;;297.15;;
11269;SDS011;5692;48.956;9.200;2023-12-14T16:50:51;298.02;;;283.77;;
11269;SDS011;5692;48.956;9.200;2023-12-14T16:53:20;309.83;;;295.02;;
11269;SDS011;5692;48.956;9.200;2023-12-14T16:56:09;311.00;;;296.15;;
11269;SDS011;5692;48.956;9.200;2023-12-14T16:58:35;315.60;;;300.50;;
11269;SDS011;5692;48.956;9.200;2023-12-14T17:01:28;309.70;;;294.90;;
11269;SDS011;5692;48.956;9.200;2023-12-14T17:04:05;315.23;;;300.13;;
11269;SDS011;5692;48.956;9.200;2023-12-14T17:06:31;322.38;;;306.98;;
11269;SDS011;5692;48.956;9.200;2023-12-14T17:09:02;317.35;;;302.17;;
11269;SDS011;5692;48.956;9.200;2023-12-14T17:11:31;308.27;;;293.55;;
11269;SDS011;5692;48.956;9.200;2023-12-14T17:13:57;314.95;;;299.90;;
11269;SDS011;5692;48.956;9.200;2023-12-14T17:16:26;301.02;;;286.63;;
11269;SDS011;5692;48.956;9.200;2023-12-14T17:18:55;285.75;;;272.10;;
11269;SDS011;5692;48.956;9.200;2023-12-14T17:21:27;320.65;;;305.33;;
11269;SDS011;5692;48.956;9.200;2023-12-14T17:24:06;309.50;;;294.70;;
11269;SDS011;5692;48.956;9.200;2023-12-14T17:26:35;307.10;;;292.40;;
11269;SDS011;5692;48.956;9.200;2023-12-14T17:29:06;307.08;;;292.40;;
11269;SDS011;5692;48.956;9.200;2023-12-14T17:31:44;299.70;;;285.38;;
11269;SDS011;5692;48.956;9.200;2023-12-14T17:34:13;299.40;;;285.10;;
11269;SDS011;5692;48.956;9.200;2023-12-14T17:40:00;292.63;;;278.67;;
11269;SDS011;5692;48.956;9.200;2023-12-14T17:45:39;280.80;;;267.40;;
11269;SDS011;5692;48.956;9.200;2023-12-14T17:48:05;280.73;;;267.33;;
11269;SDS011;5692;48.956;9.200;2023-12-14T17:50:48;298.73;;;284.42;;
11269;SDS011;5692;48.956;9.200;2023-12-14T17:53:22;288.10;;;274.33;;
11269;SDS011;5692;48.956;9.200;2023-12-14T17:56:08;283.67;;;270.10;;
11269;SDS011;5692;48.956;9.200;2023-12-14T17:58:57;280.08;;;266.70;;
11269;SDS011;5692;48.956;9.200;2023-12-14T18:01:27;283.00;;;269.48;;
11269;SDS011;5692;48.956;9.200;2023-12-14T18:04:01;301.33;;;286.90;;
11269;SDS011;5692;48.956;9.200;2023-12-14T18:06:27;295.08;;;280.98;;
11269;SDS011;5692;48.956;9.200;2023-12-14T18:08:53;305.00;;;290.40;;
11269;SDS011;5692;48.956;9.200;2023-12-14T18:11:20;289.98;;;276.10;;
11269;SDS011;5692;48.956;9.200;2023-12-14T18:13:46;294.23;;;280.15;;
11269;SDS011;5692;48.956;9.200;2023-12-14T18:16:15;316.65;;;301.52;;
11269;SDS011;5692;48.956;9.200;2023-12-14T18:18:48;309.92;;;295.10;;
11269;SDS011;5692;48.956;9.200;2023-12-14T18:21:25;313.98;;;298.98;;
11269;SDS011;5692;48.956;9.200;2023-12-14T18:23:54;309.55;;;294.75;;
11269;SDS011;5692;48.956;9.200;2023-12-14T18:26:22;301.45;;;287.05;;
11269;SDS011;5692;48.956;9.200;2023-12-14T18:28:51;314.90;;;299.85;;
11269;SDS011;5692;48.956;9.200;2023-12-14T18:31:25;310.17;;;295.38;;
11269;SDS011;5692;48.956;9.200;2023-12-14T18:33:51;293.05;;;279.05;;
11269;SDS011;5692;48.956;9.200;2023-12-14T18:36:21;316.33;;;301.23;;
11269;SDS011;5692;48.956;9.200;2023-12-14T18:38:48;316.70;;;301.60;;
11269;SDS011;5692;48.956;9.200;2023-12-14T18:41:23;327.50;;;311.85;;
11269;SDS011;5692;48.956;9.200;2023-12-14T18:44:00;311.42;;;296.58;;
11269;SDS011;5692;48.956;9.200;2023-12-14T18:46:36;305.63;;;291.02;;
11269;SDS011;5692;48.956;9.200;2023-12-14T18:49:18;314.25;;;299.25;;
11269;SDS011;5692;48.956;9.200;2023-12-14T18:51:56;311.40;;;296.55;;
11269;SDS011;5692;48.956;9.200;2023-12-14T18:54:31;299.50;;;285.17;;
11269;SDS011;5692;48.956;9.200;2023-12-14T18:57:02;295.88;;;281.75;;
11269;SDS011;5692;48.956;9.200;2023-12-14T19:02:29;286.70;;;273.00;;
11269;SDS011;5692;48.956;9.200;2023-12-14T19:10:36;289.33;;;275.50;;
11269;SDS011;5692;48.956;9.200;2023-12-14T19:13:22;312.17;;;297.27;;
11269;SDS011;5692;48.956;9.200;2023-12-14T19:16:04;311.17;;;296.30;;
11269;SDS011;5692;48.956;9.200;2023-12-14T19:18:48;291.35;;;277.45;;
11269;SDS011;5692;48.956;9.200;2023-12-14T19:21:26;317.33;;;302.17;;
11269;SDS011;5692;48.956;9.200;2023-12-14T19:24:02;309.50;;;294.70;;
11269;SDS011;5692;48.956;9.200;2023-12-14T19:26:33;300.30;;;285.95;;
11269;SDS011;5692;48.956;9.200;2023-12-14T19:29:19;288.50;;;274.70;;
11269;SDS011;5692;48.956;9.200;2023-12-14T19:31:45;296.15;;;282.00;;
11269;SDS011;5692;48.956;9.200;2023-12-14T19:34:22;299.92;;;285.60;;
11269;SDS011;5692;48.956;9.200;2023-12-14T19:36:58;302.88;;;288.40;;
11269;SDS011;5692;48.956;9.200;2023-12-14T19:39:37;293.42;;;279.40;;
11269;SDS011;5692;48.956;9.200;2023-12-14T19:42:03;294.77;;;280.70;;
11269;SDS011;5692;48.956;9.200;2023-12-14T19:44:29;292.65;;;278.65;;
11269;SDS011;5692;48.956;9.200;2023-12-14T19:46:55;292.52;;;278.52;;
11269;SDS011;5692;48.956;9.200;2023-12-14T19:49:21;298.27;;;284.02;;
11269;SDS011;5692;48.956;9.200;2023-12-14T19:51:47;293.15;;;279.15;;
11269;SDS011;5692;48.956;9.200;2023-12-14T19:54:14;285.90;;;272.25;;
11269;SDS011;5692;48.956;9.200;2023-12-14T19:56:43;298.98;;;284.67;;
11269;SDS011;5692;48.956;9.200;2023-12-14T19:59:10;283.95;;;270.38;;
11269;SDS011;5692;48.956;9.200;2023-12-14T20:01:36;293.83;;;279.77;;
11269;SDS011;5692;48.956;9.200;2023-12-14T20:04:03;282.20;;;268.70;;
11269;SDS011;5692;48.956;9.200;2023-12-14T20:06:29;284.50;;;270.90;;
11269;SDS011;5692;48.956;9.200;2023-12-14T20:08:56;280.73;;;267.30;;
11269;SDS011;5692;48.956;9.200;2023-12-14T20:11:22;267.00;;;254.23;;
11269;SDS011;5692;48.956;9.200;2023-12-14T20:13:51;248.02;;;236.18;;
11269;SDS011;5692;48.956;9.200;2023-12-14T20:16:17;262.92;;;250.38;;
11269;SDS011;5692;48.956;9.200;2023-12-14T20:18:50;280.25;;;266.85;;
11269;SDS011;5692;48.956;9.200;2023-12-14T20:21:17;246.60;;;234.80;;
11269;SDS011;5692;48.956;9.200;2023-12-14T20:23:43;259.58;;;247.15;;
11269;SDS011;5692;48.956;9.200;2023-12-14T20:26:09;261.30;;;248.80;;
11269;SDS011;5692;48.956;9.200;2023-12-14T20:28:36;262.10;;;249.57;;
11269;SDS011;5692;48.956;9.200;2023-12-14T20:31:02;257.98;;;245.65;;
11269;SDS011;5692;48.956;9.200;2023-12-14T20:33:28;263.30;;;250.70;;
11269;SDS011;5692;48.956;9.200;2023-12-14T20:35:54;263.98;;;251.35;;
11269;SDS011;5692;48.956;9.200;2023-12-14T20:38:21;252.70;;;240.60;;
11269;SDS011;5692;48.956;9.200;2023-12-14T20:40:47;276.27;;;263.08;;
11269;SDS011;5692;48.956;9.200;2023-12-14T20:43:13;257.20;;;244.90;;
11269;SDS011;5692;48.956;9.200;2023-12-14T20:45:39;252.02;;;239.98;;
11269;SDS011;5692;48.956;9.200;2023-12-14T20:48:05;256.77;;;244.50;;
11269;SDS011;5692;48.956;9.200;2023-12-14T20:50:31;240.85;;;229.35;;
11269;SDS011;5692;48.956;9.200;2023-12-14T20:52:59;253.20;;;241.10;;
11269;SDS011;5692;48.956;9.200;2023-12-14T20:55:25;248.23;;;236.38;;
11269;SDS011;5692;48.956;9.200;2023-12-14T20:57:51;249.55;;;237.63;;
11269;SDS011;5692;48.956;9.200;2023-12-14T21:00:17;246.68;;;234.88;;
11269;SDS011;5692;48.956;9.200;2023-12-14T21:02:43;253.77;;;241.68;;
11269;SDS011;5692;48.956;9.200;2023-12-14T21:05:09;247.68;;;235.82;;
11269;SDS011;5692;48.956;9.200;2023-12-14T21:07:35;263.23;;;250.63;;
11269;SDS011;5692;48.956;9.200;2023-12-14T21:10:01;243.20;;;231.55;;
11269;SDS011;5692;48.956;9.200;2023-12-14T21:12:28;237.68;;;226.30;;
11269;SDS011;5692;48.956;9.200;2023-12-14T21:14:54;246.15;;;234.35;;
11269;SDS011;5692;48.956;9.200;2023-12-14T21:17:20;248.60;;;236.70;;
11269;SDS011;5692;48.956;9.200;2023-12-14T21:19:47;250.55;;;238.57;;
11269;SDS011;5692;48.956;9.200;2023-12-14T21:22:13;247.20;;;235.40;;
11269;SDS011;5692;48.956;9.200;2023-12-14T21:24:39;242.63;;;231.02;;
11269;SDS011;5692;48.956;9.200;2023-12-14T21:27:08;266.55;;;253.80;;
11269;SDS011;5692;48.956;9.200;2023-12-14T21:29:53;254.40;;;242.23;;
11269;SDS011;5692;48.956;9.200;2023-12-14T21:32:19;262.63;;;250.07;;
11269;SDS011;5692;48.956;9.200;2023-12-14T21:34:45;256.63;;;244.32;;
11269;SDS011;5692;48.956;9.200;2023-12-14T21:37:11;254.63;;;242.45;;
11269;SDS011;5692;48.956;9.200;2023-12-14T21:39:37;277.48;;;264.17;;
11269;SDS011;5692;48.956;9.200;2023-12-14T21:42:03;264.83;;;252.15;;
11269;SDS011;5692;48.956;9.200;2023-12-14T21:44:33;272.17;;;259.17;;
11269;SDS011;5692;48.956;9.200;2023-12-14T21:46:59;276.27;;;263.08;;
11269;SDS011;5692;48.956;9.200;2023-12-14T21:49:25;262.17;;;249.65;;
11269;SDS011;5692;48.956;9.200;2023-12-14T21:51:53;254.32;;;242.15;;
11269;SDS011;5692;48.956;9.200;2023-12-14T21:54:19;261.00;;;248.52;;
11269;SDS011;5692;48.956;9.200;2023-12-14T21:56:45;255.15;;;242.95;;
11269;SDS011;5692;48.956;9.200;2023-12-14T21:59:11;276.85;;;263.63;;